sensor_id;sensor_type;location;lat;lon;timestamp;P1;durP1;ratioP1;P2;durP2;ratioP2
7375;SDS011;3728;42.266;24.944;2023-02-17T00:01:28;48.90;;;30.37;;
7375;SDS011;3728;42.266;24.944;2023-02-17T00:03:58;50.57;;;30.97;;
7375;SDS011;3728;42.266;24.944;2023-02-17T00:06:27;53.63;;;32.33;;
7375;SDS011;3728;42.266;24.944;2023-02-17T00:08:57;53.10;;;32.63;;
7375;SDS011;3728;42.266;24.944;2023-02-17T00:11:26;52.67;;;32.80;;
7375;SDS011;3728;42.266;24.944;2023-02-17T00:13:54;57.77;;;33.47;;
7375;SDS011;3728;42.266;24.944;2023-02-17T00:16:23;57.30;;;31.50;;
7375;SDS011;3728;42.266;24.944;2023-02-17T00:18:57;53.87;;;33.33;;
7375;SDS011;3728;42.266;24.944;2023-02-17T00:21:28;62.97;;;36.00;;
7375;SDS011;3728;42.266;24.944;2023-02-17T00:23:58;61.00;;;33.37;;
7375;SDS011;3728;42.266;24.944;2023-02-17T00:26:26;59.50;;;32.70;;
7375;SDS011;3728;42.266;24.944;2023-02-17T00:28:53;58.50;;;34.50;;
7375;SDS011;3728;42.266;24.944;2023-02-17T00:31:21;58.93;;;34.13;;
7375;SDS011;3728;42.266;24.944;2023-02-17T00:33:52;63.00;;;36.77;;
7375;SDS011;3728;42.266;24.944;2023-02-17T00:36:21;59.70;;;34.10;;
7375;SDS011;3728;42.266;24.944;2023-02-17T00:38:49;63.53;;;34.30;;
7375;SDS011;3728;42.266;24.944;2023-02-17T00:41:19;57.27;;;33.47;;
7375;SDS011;3728;42.266;24.944;2023-02-17T00:43:48;55.80;;;34.43;;
7375;SDS011;3728;42.266;24.944;2023-02-17T00:46:20;67.43;;;37.37;;
7375;SDS011;3728;42.266;24.944;2023-02-17T00:48:50;63.20;;;36.27;;
7375;SDS011;3728;42.266;24.944;2023-02-17T00:51:22;69.13;;;36.97;;
7375;SDS011;3728;42.266;24.944;2023-02-17T00:53:50;63.93;;;37.03;;
7375;SDS011;3728;42.266;24.944;2023-02-17T00:56:18;63.93;;;34.43;;
7375;SDS011;3728;42.266;24.944;2023-02-17T00:58:46;65.13;;;35.33;;
7375;SDS011;3728;42.266;24.944;2023-02-17T01:01:14;64.07;;;33.80;;
7375;SDS011;3728;42.266;24.944;2023-02-17T01:03:42;56.80;;;34.33;;
7375;SDS011;3728;42.266;24.944;2023-02-17T01:06:11;67.20;;;37.00;;
7375;SDS011;3728;42.266;24.944;2023-02-17T01:08:48;90.27;;;46.60;;
7375;SDS011;3728;42.266;24.944;2023-02-17T01:11:26;85.83;;;42.70;;
7375;SDS011;3728;42.266;24.944;2023-02-17T01:13:56;88.23;;;44.13;;
7375;SDS011;3728;42.266;24.944;2023-02-17T01:16:26;83.50;;;42.70;;
7375;SDS011;3728;42.266;24.944;2023-02-17T01:19:01;86.23;;;42.43;;
7375;SDS011;3728;42.266;24.944;2023-02-17T01:21:30;87.73;;;44.63;;
7375;SDS011;3728;42.266;24.944;2023-02-17T01:24:00;91.67;;;43.13;;
7375;SDS011;3728;42.266;24.944;2023-02-17T01:26:31;89.10;;;42.37;;
7375;SDS011;3728;42.266;24.944;2023-02-17T01:29:01;75.70;;;39.03;;
7375;SDS011;3728;42.266;24.944;2023-02-17T01:31:30;62.27;;;33.77;;
7375;SDS011;3728;42.266;24.944;2023-02-17T01:34:00;49.30;;;29.60;;
7375;SDS011;3728;42.266;24.944;2023-02-17T01:36:29;51.47;;;30.00;;
7375;SDS011;3728;42.266;24.944;2023-02-17T01:38:58;51.30;;;28.83;;
7375;SDS011;3728;42.266;24.944;2023-02-17T01:41:26;47.10;;;27.93;;
7375;SDS011;3728;42.266;24.944;2023-02-17T01:46:36;41.70;;;25.77;;
7375;SDS011;3728;42.266;24.944;2023-02-17T01:49:26;38.40;;;24.07;;
7375;SDS011;3728;42.266;24.944;2023-02-17T01:52:06;35.47;;;23.57;;
7375;SDS011;3728;42.266;24.944;2023-02-17T01:54:42;37.70;;;23.23;;
7375;SDS011;3728;42.266;24.944;2023-02-17T01:57:16;34.90;;;22.13;;
7375;SDS011;3728;42.266;24.944;2023-02-17T01:59:49;39.93;;;25.50;;
7375;SDS011;3728;42.266;24.944;2023-02-17T02:02:18;33.70;;;21.07;;
7375;SDS011;3728;42.266;24.944;2023-02-17T02:04:47;41.00;;;24.80;;
7375;SDS011;3728;42.266;24.944;2023-02-17T02:07:39;32.73;;;20.13;;
7375;SDS011;3728;42.266;24.944;2023-02-17T02:10:08;38.07;;;24.13;;
7375;SDS011;3728;42.266;24.944;2023-02-17T02:12:39;31.10;;;20.53;;
7375;SDS011;3728;42.266;24.944;2023-02-17T02:15:10;32.67;;;20.50;;
7375;SDS011;3728;42.266;24.944;2023-02-17T02:27:02;72.50;;;33.20;;
7375;SDS011;3728;42.266;24.944;2023-02-17T02:35:54;41.53;;;24.53;;
7375;SDS011;3728;42.266;24.944;2023-02-17T02:38:30;37.10;;;24.77;;
7375;SDS011;3728;42.266;24.944;2023-02-17T02:41:10;42.13;;;26.13;;
7375;SDS011;3728;42.266;24.944;2023-02-17T02:43:46;45.33;;;26.47;;
7375;SDS011;3728;42.266;24.944;2023-02-17T02:46:17;53.13;;;33.30;;
7375;SDS011;3728;42.266;24.944;2023-02-17T02:48:46;52.37;;;29.30;;
7375;SDS011;3728;42.266;24.944;2023-02-17T02:51:19;46.63;;;27.37;;
7375;SDS011;3728;42.266;24.944;2023-02-17T02:54:00;39.53;;;25.00;;
7375;SDS011;3728;42.266;24.944;2023-02-17T02:56:44;41.03;;;23.97;;
7375;SDS011;3728;42.266;24.944;2023-02-17T03:10:46;44.30;;;24.73;;
7375;SDS011;3728;42.266;24.944;2023-02-17T03:13:17;48.63;;;27.57;;
7375;SDS011;3728;42.266;24.944;2023-02-17T03:15:46;47.17;;;28.03;;
7375;SDS011;3728;42.266;24.944;2023-02-17T03:18:17;48.93;;;29.53;;
7375;SDS011;3728;42.266;24.944;2023-02-17T03:20:48;47.40;;;28.50;;
7375;SDS011;3728;42.266;24.944;2023-02-17T03:23:20;43.73;;;28.33;;
7375;SDS011;3728;42.266;24.944;2023-02-17T03:25:48;42.90;;;28.60;;
7375;SDS011;3728;42.266;24.944;2023-02-17T03:28:18;63.20;;;35.63;;
7375;SDS011;3728;42.266;24.944;2023-02-17T03:30:46;49.77;;;30.27;;
7375;SDS011;3728;42.266;24.944;2023-02-17T03:33:14;56.10;;;30.87;;
7375;SDS011;3728;42.266;24.944;2023-02-17T03:35:41;49.73;;;28.17;;
7375;SDS011;3728;42.266;24.944;2023-02-17T03:38:09;45.37;;;28.43;;
7375;SDS011;3728;42.266;24.944;2023-02-17T03:40:36;48.97;;;28.27;;
7375;SDS011;3728;42.266;24.944;2023-02-17T03:43:04;48.47;;;29.70;;
7375;SDS011;3728;42.266;24.944;2023-02-17T03:45:34;50.17;;;29.43;;
7375;SDS011;3728;42.266;24.944;2023-02-17T03:48:03;53.23;;;29.17;;
7375;SDS011;3728;42.266;24.944;2023-02-17T03:50:30;49.93;;;27.70;;
7375;SDS011;3728;42.266;24.944;2023-02-17T03:52:58;64.43;;;33.50;;
7375;SDS011;3728;42.266;24.944;2023-02-17T03:55:25;46.97;;;27.57;;
7375;SDS011;3728;42.266;24.944;2023-02-17T03:57:53;64.87;;;30.20;;
7375;SDS011;3728;42.266;24.944;2023-02-17T04:00:20;49.57;;;26.67;;
7375;SDS011;3728;42.266;24.944;2023-02-17T04:03:08;41.67;;;25.70;;
7375;SDS011;3728;42.266;24.944;2023-02-17T04:05:35;47.37;;;26.47;;
7375;SDS011;3728;42.266;24.944;2023-02-17T04:08:06;60.13;;;30.67;;
7375;SDS011;3728;42.266;24.944;2023-02-17T04:10:33;63.53;;;30.87;;
7375;SDS011;3728;42.266;24.944;2023-02-17T04:13:01;64.27;;;30.07;;
7375;SDS011;3728;42.266;24.944;2023-02-17T04:15:28;56.37;;;29.97;;
7375;SDS011;3728;42.266;24.944;2023-02-17T04:17:56;54.43;;;31.30;;
7375;SDS011;3728;42.266;24.944;2023-02-17T04:20:23;59.77;;;30.47;;
7375;SDS011;3728;42.266;24.944;2023-02-17T04:22:51;54.90;;;31.00;;
7375;SDS011;3728;42.266;24.944;2023-02-17T04:25:18;57.17;;;31.00;;
7375;SDS011;3728;42.266;24.944;2023-02-17T04:27:46;65.13;;;31.30;;
7375;SDS011;3728;42.266;24.944;2023-02-17T04:30:14;72.10;;;30.50;;
7375;SDS011;3728;42.266;24.944;2023-02-17T04:32:42;61.00;;;29.70;;
7375;SDS011;3728;42.266;24.944;2023-02-17T04:35:09;56.57;;;29.30;;
7375;SDS011;3728;42.266;24.944;2023-02-17T04:37:37;55.27;;;28.50;;
7375;SDS011;3728;42.266;24.944;2023-02-17T04:40:05;52.23;;;28.07;;
7375;SDS011;3728;42.266;24.944;2023-02-17T04:42:36;60.20;;;27.87;;
7375;SDS011;3728;42.266;24.944;2023-02-17T04:45:04;62.07;;;28.67;;
7375;SDS011;3728;42.266;24.944;2023-02-17T04:47:33;54.87;;;28.23;;
7375;SDS011;3728;42.266;24.944;2023-02-17T04:50:01;52.60;;;27.67;;
7375;SDS011;3728;42.266;24.944;2023-02-17T04:52:29;49.43;;;27.93;;
7375;SDS011;3728;42.266;24.944;2023-02-17T04:54:56;48.63;;;26.77;;
7375;SDS011;3728;42.266;24.944;2023-02-17T04:57:24;53.93;;;27.77;;
7375;SDS011;3728;42.266;24.944;2023-02-17T04:59:53;46.57;;;27.20;;
7375;SDS011;3728;42.266;24.944;2023-02-17T05:02:20;48.17;;;27.07;;
7375;SDS011;3728;42.266;24.944;2023-02-17T05:04:48;48.73;;;26.63;;
7375;SDS011;3728;42.266;24.944;2023-02-17T05:07:15;53.23;;;26.80;;
7375;SDS011;3728;42.266;24.944;2023-02-17T05:09:43;56.90;;;33.63;;
7375;SDS011;3728;42.266;24.944;2023-02-17T05:12:10;62.70;;;28.77;;
7375;SDS011;3728;42.266;24.944;2023-02-17T05:14:38;62.60;;;30.83;;
7375;SDS011;3728;42.266;24.944;2023-02-17T05:17:06;65.07;;;28.00;;
7375;SDS011;3728;42.266;24.944;2023-02-17T05:19:33;51.40;;;28.93;;
7375;SDS011;3728;42.266;24.944;2023-02-17T05:22:01;62.13;;;32.63;;
7375;SDS011;3728;42.266;24.944;2023-02-17T05:24:28;73.20;;;37.03;;
7375;SDS011;3728;42.266;24.944;2023-02-17T05:26:56;64.20;;;34.77;;
7375;SDS011;3728;42.266;24.944;2023-02-17T05:29:23;69.37;;;35.20;;
7375;SDS011;3728;42.266;24.944;2023-02-17T05:31:52;62.53;;;35.03;;
7375;SDS011;3728;42.266;24.944;2023-02-17T05:34:19;69.70;;;34.60;;
7375;SDS011;3728;42.266;24.944;2023-02-17T05:36:47;79.10;;;34.60;;
7375;SDS011;3728;42.266;24.944;2023-02-17T05:39:14;56.60;;;33.03;;
7375;SDS011;3728;42.266;24.944;2023-02-17T05:41:42;56.70;;;31.93;;
7375;SDS011;3728;42.266;24.944;2023-02-17T05:44:09;58.27;;;33.50;;
7375;SDS011;3728;42.266;24.944;2023-02-17T05:46:37;48.67;;;29.90;;
7375;SDS011;3728;42.266;24.944;2023-02-17T05:49:04;53.33;;;30.33;;
7375;SDS011;3728;42.266;24.944;2023-02-17T05:51:32;53.30;;;28.83;;
7375;SDS011;3728;42.266;24.944;2023-02-17T05:54:00;49.87;;;28.83;;
7375;SDS011;3728;42.266;24.944;2023-02-17T05:56:27;44.17;;;29.63;;
7375;SDS011;3728;42.266;24.944;2023-02-17T05:58:55;36.20;;;24.37;;
7375;SDS011;3728;42.266;24.944;2023-02-17T06:01:22;39.30;;;26.30;;
7375;SDS011;3728;42.266;24.944;2023-02-17T06:03:50;30.70;;;20.93;;
7375;SDS011;3728;42.266;24.944;2023-02-17T06:06:17;30.57;;;21.80;;
7375;SDS011;3728;42.266;24.944;2023-02-17T06:08:45;36.00;;;24.63;;
7375;SDS011;3728;42.266;24.944;2023-02-17T06:11:13;35.67;;;24.80;;
7375;SDS011;3728;42.266;24.944;2023-02-17T06:13:40;42.90;;;28.33;;
7375;SDS011;3728;42.266;24.944;2023-02-17T06:16:08;50.50;;;28.50;;
7375;SDS011;3728;42.266;24.944;2023-02-17T06:18:35;48.10;;;29.93;;
7375;SDS011;3728;42.266;24.944;2023-02-17T06:21:03;101.70;;;49.93;;
7375;SDS011;3728;42.266;24.944;2023-02-17T06:23:31;101.87;;;52.03;;
7375;SDS011;3728;42.266;24.944;2023-02-17T06:25:58;63.23;;;36.57;;
7375;SDS011;3728;42.266;24.944;2023-02-17T06:28:26;55.70;;;33.53;;
7375;SDS011;3728;42.266;24.944;2023-02-17T06:30:54;50.07;;;31.43;;
7375;SDS011;3728;42.266;24.944;2023-02-17T06:33:21;47.93;;;31.57;;
7375;SDS011;3728;42.266;24.944;2023-02-17T06:35:49;46.20;;;29.87;;
7375;SDS011;3728;42.266;24.944;2023-02-17T06:38:17;86.00;;;33.83;;
7375;SDS011;3728;42.266;24.944;2023-02-17T06:40:45;107.37;;;43.33;;
7375;SDS011;3728;42.266;24.944;2023-02-17T06:43:13;71.13;;;38.73;;
7375;SDS011;3728;42.266;24.944;2023-02-17T06:45:40;79.93;;;40.70;;
7375;SDS011;3728;42.266;24.944;2023-02-17T06:48:08;85.60;;;42.60;;
7375;SDS011;3728;42.266;24.944;2023-02-17T06:50:36;63.73;;;38.47;;
7375;SDS011;3728;42.266;24.944;2023-02-17T06:53:06;41.83;;;29.43;;
7375;SDS011;3728;42.266;24.944;2023-02-17T06:55:34;46.23;;;27.40;;
7375;SDS011;3728;42.266;24.944;2023-02-17T06:58:02;81.93;;;38.10;;
7375;SDS011;3728;42.266;24.944;2023-02-17T07:00:30;83.13;;;39.03;;
7375;SDS011;3728;42.266;24.944;2023-02-17T07:02:58;59.03;;;37.97;;
7375;SDS011;3728;42.266;24.944;2023-02-17T07:05:27;41.20;;;27.73;;
7375;SDS011;3728;42.266;24.944;2023-02-17T07:07:58;27.63;;;18.97;;
7375;SDS011;3728;42.266;24.944;2023-02-17T07:10:26;27.50;;;19.77;;
7375;SDS011;3728;42.266;24.944;2023-02-17T07:12:53;22.80;;;16.53;;
7375;SDS011;3728;42.266;24.944;2023-02-17T07:15:21;24.73;;;17.47;;
7375;SDS011;3728;42.266;24.944;2023-02-17T07:17:49;24.73;;;16.90;;
7375;SDS011;3728;42.266;24.944;2023-02-17T07:20:16;19.87;;;15.53;;
7375;SDS011;3728;42.266;24.944;2023-02-17T07:22:44;26.53;;;16.50;;
7375;SDS011;3728;42.266;24.944;2023-02-17T07:25:12;20.73;;;14.93;;
7375;SDS011;3728;42.266;24.944;2023-02-17T07:27:39;23.47;;;16.23;;
7375;SDS011;3728;42.266;24.944;2023-02-17T07:30:07;25.80;;;17.50;;
7375;SDS011;3728;42.266;24.944;2023-02-17T07:32:35;26.77;;;16.60;;
7375;SDS011;3728;42.266;24.944;2023-02-17T07:35:03;26.27;;;17.83;;
7375;SDS011;3728;42.266;24.944;2023-02-17T07:37:31;27.83;;;18.73;;
7375;SDS011;3728;42.266;24.944;2023-02-17T07:39:59;25.93;;;17.90;;
7375;SDS011;3728;42.266;24.944;2023-02-17T07:42:27;33.57;;;18.80;;
7375;SDS011;3728;42.266;24.944;2023-02-17T07:44:54;28.67;;;19.60;;
7375;SDS011;3728;42.266;24.944;2023-02-17T07:47:22;28.70;;;20.00;;
7375;SDS011;3728;42.266;24.944;2023-02-17T07:49:49;29.80;;;19.13;;
7375;SDS011;3728;42.266;24.944;2023-02-17T07:52:17;31.33;;;21.23;;
7375;SDS011;3728;42.266;24.944;2023-02-17T07:54:44;30.33;;;19.80;;
7375;SDS011;3728;42.266;24.944;2023-02-17T07:57:12;29.20;;;20.90;;
7375;SDS011;3728;42.266;24.944;2023-02-17T07:59:39;24.53;;;17.40;;
7375;SDS011;3728;42.266;24.944;2023-02-17T08:02:08;26.27;;;18.30;;
7375;SDS011;3728;42.266;24.944;2023-02-17T08:04:39;28.40;;;18.13;;
7375;SDS011;3728;42.266;24.944;2023-02-17T08:07:07;26.03;;;19.10;;
7375;SDS011;3728;42.266;24.944;2023-02-17T08:09:34;26.30;;;19.47;;
7375;SDS011;3728;42.266;24.944;2023-02-17T08:12:20;28.00;;;19.10;;
7375;SDS011;3728;42.266;24.944;2023-02-17T08:15:09;24.97;;;18.63;;
7375;SDS011;3728;42.266;24.944;2023-02-17T08:17:37;25.43;;;18.50;;
7375;SDS011;3728;42.266;24.944;2023-02-17T08:20:05;28.67;;;18.80;;
7375;SDS011;3728;42.266;24.944;2023-02-17T08:22:35;35.77;;;20.27;;
7375;SDS011;3728;42.266;24.944;2023-02-17T08:25:03;28.57;;;18.60;;
7375;SDS011;3728;42.266;24.944;2023-02-17T08:27:31;25.63;;;18.67;;
7375;SDS011;3728;42.266;24.944;2023-02-17T08:30:00;33.53;;;20.30;;
7375;SDS011;3728;42.266;24.944;2023-02-17T08:32:29;27.07;;;20.20;;
7375;SDS011;3728;42.266;24.944;2023-02-17T08:34:56;30.13;;;20.27;;
7375;SDS011;3728;42.266;24.944;2023-02-17T08:37:24;33.27;;;21.17;;
7375;SDS011;3728;42.266;24.944;2023-02-17T08:39:52;37.40;;;20.43;;
7375;SDS011;3728;42.266;24.944;2023-02-17T08:42:20;28.33;;;21.40;;
7375;SDS011;3728;42.266;24.944;2023-02-17T08:44:48;28.00;;;20.40;;
7375;SDS011;3728;42.266;24.944;2023-02-17T08:47:15;28.43;;;20.17;;
7375;SDS011;3728;42.266;24.944;2023-02-17T08:49:43;27.53;;;20.93;;
7375;SDS011;3728;42.266;24.944;2023-02-17T08:52:10;27.80;;;20.83;;
7375;SDS011;3728;42.266;24.944;2023-02-17T08:54:38;32.67;;;22.17;;
7375;SDS011;3728;42.266;24.944;2023-02-17T08:57:05;25.43;;;20.20;;
7375;SDS011;3728;42.266;24.944;2023-02-17T08:59:33;27.33;;;19.20;;
7375;SDS011;3728;42.266;24.944;2023-02-17T09:02:00;74.50;;;21.17;;
7375;SDS011;3728;42.266;24.944;2023-02-17T09:04:28;28.90;;;19.37;;
7375;SDS011;3728;42.266;24.944;2023-02-17T09:06:55;31.77;;;19.70;;
7375;SDS011;3728;42.266;24.944;2023-02-17T09:09:24;28.63;;;20.17;;
7375;SDS011;3728;42.266;24.944;2023-02-17T09:11:54;29.87;;;19.13;;
7375;SDS011;3728;42.266;24.944;2023-02-17T09:14:23;26.00;;;18.83;;
7375;SDS011;3728;42.266;24.944;2023-02-17T09:16:51;25.23;;;17.87;;
7375;SDS011;3728;42.266;24.944;2023-02-17T09:19:20;21.37;;;17.20;;
7375;SDS011;3728;42.266;24.944;2023-02-17T09:21:49;25.37;;;17.97;;
7375;SDS011;3728;42.266;24.944;2023-02-17T09:24:16;23.70;;;17.47;;
7375;SDS011;3728;42.266;24.944;2023-02-17T09:26:44;22.00;;;16.87;;
7375;SDS011;3728;42.266;24.944;2023-02-17T09:29:12;27.87;;;17.20;;
7375;SDS011;3728;42.266;24.944;2023-02-17T09:31:39;22.20;;;17.60;;
7375;SDS011;3728;42.266;24.944;2023-02-17T09:34:07;24.27;;;17.10;;
7375;SDS011;3728;42.266;24.944;2023-02-17T09:36:38;21.40;;;16.23;;
7375;SDS011;3728;42.266;24.944;2023-02-17T09:39:07;31.33;;;17.00;;
7375;SDS011;3728;42.266;24.944;2023-02-17T09:41:43;20.43;;;15.60;;
7375;SDS011;3728;42.266;24.944;2023-02-17T09:44:19;20.30;;;14.53;;
7375;SDS011;3728;42.266;24.944;2023-02-17T09:46:56;23.63;;;16.20;;
7375;SDS011;3728;42.266;24.944;2023-02-17T09:49:46;22.13;;;15.50;;
7375;SDS011;3728;42.266;24.944;2023-02-17T09:52:28;23.63;;;16.13;;
7375;SDS011;3728;42.266;24.944;2023-02-17T09:55:07;20.47;;;15.60;;
7375;SDS011;3728;42.266;24.944;2023-02-17T10:00:31;24.97;;;16.10;;
7375;SDS011;3728;42.266;24.944;2023-02-17T10:03:17;22.93;;;16.20;;
7375;SDS011;3728;42.266;24.944;2023-02-17T10:12:00;19.97;;;14.83;;
7375;SDS011;3728;42.266;24.944;2023-02-17T10:14:39;21.53;;;15.33;;
7375;SDS011;3728;42.266;24.944;2023-02-17T10:17:33;22.83;;;16.27;;
7375;SDS011;3728;42.266;24.944;2023-02-17T10:20:13;18.50;;;16.00;;
7375;SDS011;3728;42.266;24.944;2023-02-17T10:22:56;19.23;;;14.73;;
7375;SDS011;3728;42.266;24.944;2023-02-17T10:31:37;21.07;;;16.27;;
7375;SDS011;3728;42.266;24.944;2023-02-17T10:34:33;21.30;;;15.17;;
7375;SDS011;3728;42.266;24.944;2023-02-17T10:37:05;21.03;;;15.77;;
7375;SDS011;3728;42.266;24.944;2023-02-17T10:40:12;22.63;;;15.87;;
7375;SDS011;3728;42.266;24.944;2023-02-17T10:42:45;23.17;;;15.60;;
7375;SDS011;3728;42.266;24.944;2023-02-17T10:48:06;20.87;;;15.77;;
7375;SDS011;3728;42.266;24.944;2023-02-17T10:50:42;21.27;;;15.60;;
7375;SDS011;3728;42.266;24.944;2023-02-17T10:53:14;20.80;;;15.37;;
7375;SDS011;3728;42.266;24.944;2023-02-17T11:01:29;18.47;;;15.23;;
7375;SDS011;3728;42.266;24.944;2023-02-17T11:04:03;19.00;;;14.17;;
7375;SDS011;3728;42.266;24.944;2023-02-17T11:06:48;16.10;;;13.60;;
7375;SDS011;3728;42.266;24.944;2023-02-17T11:09:24;13.43;;;11.97;;
7375;SDS011;3728;42.266;24.944;2023-02-17T11:11:58;17.13;;;12.27;;
7375;SDS011;3728;42.266;24.944;2023-02-17T11:14:45;23.20;;;13.07;;
7375;SDS011;3728;42.266;24.944;2023-02-17T11:17:35;17.60;;;9.30;;
7375;SDS011;3728;42.266;24.944;2023-02-17T11:22:40;11.07;;;5.47;;
7375;SDS011;3728;42.266;24.944;2023-02-17T11:25:24;8.37;;;4.30;;
7375;SDS011;3728;42.266;24.944;2023-02-17T11:27:56;11.57;;;4.70;;
7375;SDS011;3728;42.266;24.944;2023-02-17T11:30:50;10.47;;;4.90;;
7375;SDS011;3728;42.266;24.944;2023-02-17T11:33:33;7.37;;;5.07;;
7375;SDS011;3728;42.266;24.944;2023-02-17T11:36:06;12.83;;;4.70;;
7375;SDS011;3728;42.266;24.944;2023-02-17T11:38:47;8.87;;;5.57;;
7375;SDS011;3728;42.266;24.944;2023-02-17T11:41:16;13.70;;;5.40;;
7375;SDS011;3728;42.266;24.944;2023-02-17T11:43:51;6.90;;;4.63;;
7375;SDS011;3728;42.266;24.944;2023-02-17T11:55:21;12.53;;;6.00;;
7375;SDS011;3728;42.266;24.944;2023-02-17T12:35:46;8.10;;;4.30;;
7375;SDS011;3728;42.266;24.944;2023-02-17T12:38:53;15.07;;;7.03;;
7375;SDS011;3728;42.266;24.944;2023-02-17T12:41:24;6.80;;;4.47;;
7375;SDS011;3728;42.266;24.944;2023-02-17T12:44:01;7.70;;;5.80;;
7375;SDS011;3728;42.266;24.944;2023-02-17T12:46:40;14.27;;;6.67;;
7375;SDS011;3728;42.266;24.944;2023-02-17T12:49:21;8.43;;;5.03;;
7375;SDS011;3728;42.266;24.944;2023-02-17T12:52:03;10.03;;;5.90;;
7375;SDS011;3728;42.266;24.944;2023-02-17T12:54:42;12.00;;;5.47;;
7375;SDS011;3728;42.266;24.944;2023-02-17T12:57:48;6.87;;;4.87;;
7375;SDS011;3728;42.266;24.944;2023-02-17T13:00:35;6.43;;;3.40;;
7375;SDS011;3728;42.266;24.944;2023-02-17T13:03:27;5.87;;;3.37;;
7375;SDS011;3728;42.266;24.944;2023-02-17T13:06:10;7.47;;;4.70;;
7375;SDS011;3728;42.266;24.944;2023-02-17T13:14:53;6.27;;;3.40;;
7375;SDS011;3728;42.266;24.944;2023-02-17T13:17:37;4.87;;;3.97;;
7375;SDS011;3728;42.266;24.944;2023-02-17T13:22:45;6.68;;;4.15;;
7375;SDS011;3728;42.266;24.944;2023-02-17T13:25:30;6.47;;;4.22;;
7375;SDS011;3728;42.266;24.944;2023-02-17T13:31:16;4.10;;;2.35;;
7375;SDS011;3728;42.266;24.944;2023-02-17T13:33:54;6.95;;;3.00;;
7375;SDS011;3728;42.266;24.944;2023-02-17T13:41:55;6.68;;;2.78;;
7375;SDS011;3728;42.266;24.944;2023-02-17T13:44:32;3.28;;;2.47;;
7375;SDS011;3728;42.266;24.944;2023-02-17T13:47:10;2.35;;;2.15;;
7375;SDS011;3728;42.266;24.944;2023-02-17T13:49:50;4.63;;;2.22;;
7375;SDS011;3728;42.266;24.944;2023-02-17T13:52:21;3.25;;;2.33;;
7375;SDS011;3728;42.266;24.944;2023-02-17T13:54:54;6.43;;;2.50;;
7375;SDS011;3728;42.266;24.944;2023-02-17T13:57:25;4.75;;;3.05;;
7375;SDS011;3728;42.266;24.944;2023-02-17T14:02:57;4.63;;;2.60;;
7375;SDS011;3728;42.266;24.944;2023-02-17T14:05:47;3.10;;;2.60;;
7375;SDS011;3728;42.266;24.944;2023-02-17T14:11:25;2.38;;;1.95;;
7375;SDS011;3728;42.266;24.944;2023-02-17T14:13:58;4.07;;;2.72;;
7375;SDS011;3728;42.266;24.944;2023-02-17T14:19:07;6.60;;;5.95;;
7375;SDS011;3728;42.266;24.944;2023-02-17T14:27:01;5.47;;;4.13;;
7375;SDS011;3728;42.266;24.944;2023-02-17T14:37:37;5.63;;;3.85;;
7375;SDS011;3728;42.266;24.944;2023-02-17T14:40:14;5.07;;;3.92;;
7375;SDS011;3728;42.266;24.944;2023-02-17T14:42:48;5.57;;;5.00;;
7375;SDS011;3728;42.266;24.944;2023-02-17T14:45:17;7.78;;;5.28;;
7375;SDS011;3728;42.266;24.944;2023-02-17T14:47:45;7.82;;;5.55;;
7375;SDS011;3728;42.266;24.944;2023-02-17T14:50:13;10.43;;;5.63;;
7375;SDS011;3728;42.266;24.944;2023-02-17T14:52:45;9.32;;;4.85;;
7375;SDS011;3728;42.266;24.944;2023-02-17T14:58:01;4.75;;;3.55;;
7375;SDS011;3728;42.266;24.944;2023-02-17T15:00:29;7.63;;;3.50;;
7375;SDS011;3728;42.266;24.944;2023-02-17T15:02:57;5.18;;;3.50;;
7375;SDS011;3728;42.266;24.944;2023-02-17T15:05:25;13.23;;;7.95;;
7375;SDS011;3728;42.266;24.944;2023-02-17T15:07:53;10.00;;;5.90;;
7375;SDS011;3728;42.266;24.944;2023-02-17T15:10:25;10.13;;;7.33;;
7375;SDS011;3728;42.266;24.944;2023-02-17T15:12:54;10.90;;;7.60;;
7375;SDS011;3728;42.266;24.944;2023-02-17T15:15:23;7.87;;;5.23;;
7375;SDS011;3728;42.266;24.944;2023-02-17T15:17:51;4.70;;;3.07;;
7375;SDS011;3728;42.266;24.944;2023-02-17T15:20:20;5.60;;;4.33;;
7375;SDS011;3728;42.266;24.944;2023-02-17T15:22:47;6.37;;;4.40;;
7375;SDS011;3728;42.266;24.944;2023-02-17T15:25:19;9.50;;;4.70;;
7375;SDS011;3728;42.266;24.944;2023-02-17T15:27:47;7.70;;;3.73;;
7375;SDS011;3728;42.266;24.944;2023-02-17T15:30:17;7.87;;;4.03;;
7375;SDS011;3728;42.266;24.944;2023-02-17T15:32:46;5.53;;;4.17;;
7375;SDS011;3728;42.266;24.944;2023-02-17T15:35:22;11.67;;;4.90;;
7375;SDS011;3728;42.266;24.944;2023-02-17T15:37:53;6.93;;;4.30;;
7375;SDS011;3728;42.266;24.944;2023-02-17T15:40:25;7.33;;;4.70;;
7375;SDS011;3728;42.266;24.944;2023-02-17T15:42:55;10.93;;;8.20;;
7375;SDS011;3728;42.266;24.944;2023-02-17T15:45:29;15.50;;;13.90;;
7375;SDS011;3728;42.266;24.944;2023-02-17T15:48:03;22.10;;;16.33;;
7375;SDS011;3728;42.266;24.944;2023-02-17T15:50:38;10.10;;;6.43;;
7375;SDS011;3728;42.266;24.944;2023-02-17T15:53:06;9.60;;;7.70;;
7375;SDS011;3728;42.266;24.944;2023-02-17T15:55:33;9.13;;;7.20;;
7375;SDS011;3728;42.266;24.944;2023-02-17T15:58:02;11.80;;;7.53;;
7375;SDS011;3728;42.266;24.944;2023-02-17T16:00:36;14.23;;;8.50;;
7375;SDS011;3728;42.266;24.944;2023-02-17T16:03:04;15.90;;;8.53;;
7375;SDS011;3728;42.266;24.944;2023-02-17T16:05:54;17.73;;;10.97;;
7375;SDS011;3728;42.266;24.944;2023-02-17T16:08:27;23.30;;;14.43;;
7375;SDS011;3728;42.266;24.944;2023-02-17T16:10:55;28.73;;;16.00;;
7375;SDS011;3728;42.266;24.944;2023-02-17T16:13:23;41.40;;;21.90;;
7375;SDS011;3728;42.266;24.944;2023-02-17T16:15:56;70.10;;;37.17;;
7375;SDS011;3728;42.266;24.944;2023-02-17T16:18:25;77.10;;;42.17;;
7375;SDS011;3728;42.266;24.944;2023-02-17T16:20:52;71.50;;;36.13;;
7375;SDS011;3728;42.266;24.944;2023-02-17T16:23:21;58.73;;;31.13;;
7375;SDS011;3728;42.266;24.944;2023-02-17T16:25:49;44.90;;;25.67;;
7375;SDS011;3728;42.266;24.944;2023-02-17T16:28:18;39.93;;;24.03;;
7375;SDS011;3728;42.266;24.944;2023-02-17T16:30:48;31.23;;;19.53;;
7375;SDS011;3728;42.266;24.944;2023-02-17T16:33:18;14.20;;;8.57;;
7375;SDS011;3728;42.266;24.944;2023-02-17T16:35:48;15.37;;;12.00;;
7375;SDS011;3728;42.266;24.944;2023-02-17T16:38:39;24.47;;;17.10;;
7375;SDS011;3728;42.266;24.944;2023-02-17T16:41:11;25.20;;;14.80;;
7375;SDS011;3728;42.266;24.944;2023-02-17T16:43:41;18.60;;;11.73;;
7375;SDS011;3728;42.266;24.944;2023-02-17T16:46:17;21.37;;;14.17;;
7375;SDS011;3728;42.266;24.944;2023-02-17T16:48:53;26.83;;;21.60;;
7375;SDS011;3728;42.266;24.944;2023-02-17T16:51:21;28.67;;;17.10;;
7375;SDS011;3728;42.266;24.944;2023-02-17T16:53:51;27.50;;;17.27;;
7375;SDS011;3728;42.266;24.944;2023-02-17T16:56:20;31.37;;;19.53;;
7375;SDS011;3728;42.266;24.944;2023-02-17T16:59:01;38.20;;;24.37;;
7375;SDS011;3728;42.266;24.944;2023-02-17T17:01:28;33.83;;;21.40;;
7375;SDS011;3728;42.266;24.944;2023-02-17T17:03:57;28.57;;;16.77;;
7375;SDS011;3728;42.266;24.944;2023-02-17T17:06:28;23.60;;;14.73;;
7375;SDS011;3728;42.266;24.944;2023-02-17T17:08:57;28.33;;;16.53;;
7375;SDS011;3728;42.266;24.944;2023-02-17T17:11:25;25.30;;;14.83;;
7375;SDS011;3728;42.266;24.944;2023-02-17T17:13:54;33.53;;;22.10;;
7375;SDS011;3728;42.266;24.944;2023-02-17T17:16:26;40.87;;;26.00;;
7375;SDS011;3728;42.266;24.944;2023-02-17T17:18:59;47.03;;;29.00;;
7375;SDS011;3728;42.266;24.944;2023-02-17T17:21:28;50.33;;;29.07;;
7375;SDS011;3728;42.266;24.944;2023-02-17T17:23:56;57.20;;;35.00;;
7375;SDS011;3728;42.266;24.944;2023-02-17T17:26:28;52.57;;;31.37;;
7375;SDS011;3728;42.266;24.944;2023-02-17T17:29:10;64.40;;;37.17;;